SAMR/AFA METAR and TAF weather

Enter ICAO airport designator
Station Type Date Time Source
SAMR METAR 2020/03/25 03:12 UTC NOAA

SAMR 250312Z 18005KT 9999 FEW040CB BKN100 14/14 Q1019


Station Type Date Time Source
SAMR Decoded METAR 2020/03/25 03:12 UTC NOAA

San Rafael Aerodrome, Argentina (SAMR) 34-35S 068-24W 748M
Mar 24, 2020 - 11:12 PM EDT / 2020.03.25 0312 UTC
Wind: from the S (180 degrees) at 6 MPH (5 KT):0
Visibility: greater than 7 mile(s):0
Sky conditions: mostly cloudy
Weather: Cumulonimbus clouds observed
Temperature: 57 F (14 C)
Dew Point: 57 F (14 C)
Relative Humidity: 100%
Pressure (altimeter): 30.09 in. Hg (1019 hPa)
ob: SAMR 250312Z 18005KT 9999 FEW040CB BKN100 14/14 Q1019
cycle: 3

Station Type Date Time Source
SAMR TAF 2019/08/18 18:03 UTC NOAA

TAF SAMR 181700Z 1818/1918 16010KT 9999 OVC030 SCT070 TX12/1819Z TN01/1911Z

Example: see airport list